Ripponden, United Kingdom
Current Conditions -  °F | °C
As of 12:50 PM on Thursday 27 Nov 2014 (Local Time) from EGNM Reporting Station
Moderate Fog Moderate Fog  
Wind Chill: 45°   Ceiling: Unl
Heat Index: 45°   Visibility: 0.25mi
Dew Point: 45°   Wind: 1mph
Humidity: 100%   Direction: NA
Pressure: 29.56"   Gusts: NA
Location:  53.67°N, 1.94°W
Report Text: EGNM 271250Z VRB01KT 0400 R32/0600 FG VV/// 07/07 Q1001
Loading
Personal Weather Stations






























Interactive Weather Map New forecast layout! Learn more

10-Day Weather Forecast

Advertisements
Track Severe Weather on mobile